Mc Clellan-Palomar Airport Carlsbad US
ICAO: KCRQ
IATA: CRQ
Category: Medium
Scheduled Services: No

Elevation: 331 ft
TransAlt. 18000 ft.

Airport Communications:
SOCAL APP/DEP:127.3
ATIS:120.15
CLNC DEL:134.85
CTAF:118.6
GND:121.8
SAN DIEGO RDO:115.3
TWR:118.6

KCRQ Zoom In..

If you have problems with the map follow the link
https://www.worldairports.se/pages/airport.php?
ICAO=KCRQ

Runways:

(A) RW 06 length 4897 ft width 150 ft
---- / hdg 65

(B) RW 24 length 4897 ft width 150 ft
ILS 108.70 / hdg 245

Location; KCRQ
Day. 20 / Time. 07.53 Zulu
* Altimeter: 30.06
* Temperature: 13° c. 55.4°f.
* Wind from: 000° Speed 00 kn.
Dewpoint: 07° c.
Visibility: 9 Statute Miles.
Clouds: Clear (automated report).

KCRQ 200753Z AUTO 00000KT 9SM CLR 13/07 A3006 RMK AO2 SLP177 T01280072 402170072 $


Wind - Calm.

 
 
jpsmedia worldairports.se 2020   terms of use